createdAt,value
2023-02-11T00:01:31.249Z,98.39
2023-02-11T00:03:59.806Z,98.14
2023-02-11T00:06:29.511Z,96.08
2023-02-11T00:08:56.995Z,96.69
2023-02-11T00:11:26.520Z,97.09
2023-02-11T00:13:53.477Z,97.35
2023-02-11T00:16:21.345Z,98.09
2023-02-11T00:18:50.242Z,98.20
2023-02-11T00:21:24.453Z,98.47
2023-02-11T00:23:52.156Z,98.75
2023-02-11T00:26:25.691Z,98.53
2023-02-11T00:28:53.366Z,97.81
2023-02-11T00:31:23.034Z,96.98
2023-02-11T00:33:50.348Z,97.59
2023-02-11T00:36:24.544Z,97.40
2023-02-11T00:38:53.966Z,98.45
2023-02-11T00:41:22.188Z,99.71
2023-02-11T00:43:49.766Z,99.86
2023-02-11T00:46:19.820Z,100.00
2023-02-11T00:48:46.934Z,100.00
2023-02-11T00:51:13.913Z,100.00
2023-02-11T00:53:41.074Z,99.85
2023-02-11T00:56:08.827Z,99.54
2023-02-11T00:58:37.208Z,98.26
2023-02-11T01:01:04.799Z,98.77
2023-02-11T01:03:32.018Z,98.62
2023-02-11T01:05:58.914Z,98.41
2023-02-11T01:08:29.216Z,97.67
2023-02-11T01:11:02.497Z,98.31
2023-02-11T01:13:32.792Z,99.24
2023-02-11T01:16:00.217Z,98.59
2023-02-11T01:18:27.953Z,98.51
2023-02-11T01:20:55.366Z,98.77
2023-02-11T01:23:22.454Z,97.96
2023-02-11T01:25:50.656Z,98.69
2023-02-11T01:28:20.768Z,98.49
2023-02-11T01:30:48.389Z,98.77
2023-02-11T01:33:15.574Z,99.16
2023-02-11T01:35:43.315Z,99.24
2023-02-11T01:38:18.474Z,99.40
2023-02-11T01:40:58.635Z,98.53
2023-02-11T01:43:28.329Z,98.56
2023-02-11T01:46:31.066Z,98.00
2023-02-11T01:49:06.509Z,98.94
2023-02-11T01:51:42.253Z,98.83
2023-02-11T01:54:31.090Z,99.28
2023-02-11T01:57:18.827Z,99.68
2023-02-11T01:59:58.192Z,99.44
2023-02-11T02:02:39.861Z,99.90
2023-02-11T02:05:30.968Z,98.75
2023-02-11T02:08:19.577Z,98.92
2023-02-11T02:10:49.694Z,98.61
2023-02-11T02:13:17.380Z,98.74
2023-02-11T02:15:55.461Z,98.69
2023-02-11T02:19:00.946Z,99.30
2023-02-11T02:21:49.338Z,99.67
2023-02-11T02:24:36.476Z,99.08
2023-02-11T02:28:07.252Z,99.04
2023-02-11T02:31:03.562Z,97.66
2023-02-11T02:33:56.301Z,98.29
2023-02-11T02:36:41.821Z,98.35
2023-02-11T02:39:27.084Z,98.24
2023-02-11T02:41:56.696Z,98.36
2023-02-11T02:44:24.234Z,98.54
2023-02-11T02:46:51.624Z,97.78
2023-02-11T02:49:18.677Z,97.99
2023-02-11T02:52:30.505Z,98.07
2023-02-11T02:55:32.505Z,97.50
2023-02-11T02:58:14.796Z,97.94
2023-02-11T03:01:20.499Z,98.12
2023-02-11T03:03:53.385Z,98.55
2023-02-11T03:07:01.966Z,98.21
2023-02-11T03:09:40.866Z,98.48
2023-02-11T03:12:08.895Z,98.20
2023-02-11T03:14:36.836Z,98.76
2023-02-11T03:17:06.324Z,98.85
2023-02-11T03:19:46.666Z,97.59
2023-02-11T03:22:42.523Z,96.79
2023-02-11T03:25:09.988Z,97.37
2023-02-11T03:28:05.822Z,97.47
2023-02-11T03:30:45.767Z,97.87
2023-02-11T03:33:57.838Z,97.94
2023-02-11T03:36:33.808Z,98.73
2023-02-11T03:39:03.578Z,98.81
2023-02-11T03:41:31.480Z,98.24
2023-02-11T03:43:59.770Z,99.03
2023-02-11T03:46:35.800Z,98.96
2023-02-11T03:49:12.186Z,99.20
2023-02-11T03:51:40.411Z,99.37
2023-02-11T03:54:13.683Z,98.27
2023-02-11T03:56:49.923Z,97.00
2023-02-11T03:59:16.976Z,97.91
2023-02-11T04:01:44.023Z,97.56
2023-02-11T04:04:11.453Z,97.70
2023-02-11T04:06:38.658Z,97.50
2023-02-11T04:09:05.838Z,98.53
2023-02-11T04:11:32.857Z,97.31
2023-02-11T04:13:59.926Z,96.83
2023-02-11T04:16:27.179Z,96.24
2023-02-11T04:18:54.136Z,96.96
2023-02-11T04:21:21.038Z,96.65
2023-02-11T04:23:47.903Z,97.12
2023-02-11T04:26:14.911Z,97.25
2023-02-11T04:28:41.798Z,97.83
2023-02-11T04:31:10.697Z,98.50
2023-02-11T04:33:37.704Z,98.53
2023-02-11T04:36:04.780Z,98.99
2023-02-11T04:38:32.293Z,98.46
2023-02-11T04:41:00.536Z,98.03
2023-02-11T04:43:27.457Z,98.26
2023-02-11T04:45:58.758Z,97.96
2023-02-11T04:48:26.282Z,97.02
2023-02-11T04:50:53.331Z,97.58
2023-02-11T04:53:20.452Z,97.93
2023-02-11T04:55:50.912Z,97.79
2023-02-11T04:58:20.120Z,97.27
2023-02-11T05:00:47.399Z,96.56
2023-02-11T05:03:14.597Z,96.90
2023-02-11T05:05:42.662Z,97.00
2023-02-11T05:08:12.777Z,97.85
2023-02-11T05:10:39.789Z,97.92
2023-02-11T05:13:06.715Z,97.71
2023-02-11T05:15:33.639Z,97.31
2023-02-11T05:18:00.503Z,96.68
2023-02-11T05:20:27.429Z,97.74
2023-02-11T05:22:54.370Z,97.71
2023-02-11T05:25:21.385Z,97.28
2023-02-11T05:27:48.414Z,97.14
2023-02-11T05:30:15.345Z,97.87
2023-02-11T05:32:42.286Z,97.46
2023-02-11T05:35:09.549Z,96.15
2023-02-11T05:37:36.770Z,97.29
2023-02-11T05:40:04.972Z,97.55
2023-02-11T05:42:32.030Z,96.04
2023-02-11T05:44:58.916Z,97.00
2023-02-11T05:47:25.894Z,95.87
2023-02-11T05:49:55.908Z,96.06
2023-02-11T05:52:24.271Z,96.40
2023-02-11T05:54:51.565Z,97.19
2023-02-11T05:57:18.553Z,97.03
2023-02-11T05:59:45.528Z,96.99
2023-02-11T06:02:12.571Z,97.63
2023-02-11T06:04:39.530Z,97.05
2023-02-11T06:07:06.493Z,97.27
2023-02-11T06:09:33.413Z,96.49
2023-02-11T06:12:00.305Z,96.66
2023-02-11T06:14:27.385Z,96.47
2023-02-11T06:16:54.355Z,96.15
2023-02-11T06:19:21.320Z,96.44
2023-02-11T06:21:48.248Z,96.46
2023-02-11T06:24:17.416Z,96.23
2023-02-11T06:26:46.282Z,96.80
2023-02-11T06:29:13.941Z,96.52
2023-02-11T06:31:41.462Z,96.48
2023-02-11T06:34:10.372Z,96.48
2023-02-11T06:36:39.891Z,96.52
2023-02-11T06:39:08.205Z,96.47
2023-02-11T06:41:35.122Z,96.57
2023-02-11T06:44:02.279Z,96.17
2023-02-11T06:46:29.371Z,94.72
2023-02-11T06:48:56.543Z,95.57
2023-02-11T06:51:23.632Z,95.45
2023-02-11T06:53:50.591Z,95.08
2023-02-11T06:56:23.011Z,95.18
2023-02-11T06:58:56.338Z,95.63
2023-02-11T07:01:25.336Z,95.52
2023-02-11T07:03:53.592Z,95.76
2023-02-11T07:06:27.739Z,96.04
2023-02-11T07:08:56.223Z,96.04
2023-02-11T07:11:27.477Z,96.17
2023-02-11T07:14:00.803Z,95.20
2023-02-11T07:16:27.992Z,95.64
2023-02-11T07:18:55.018Z,95.97
2023-02-11T07:21:24.378Z,95.95
2023-02-11T07:23:52.247Z,95.43
2023-02-11T07:26:25.906Z,95.35
2023-02-11T07:28:53.952Z,94.90
2023-02-11T07:31:27.925Z,94.14
2023-02-11T07:33:59.818Z,94.23
2023-02-11T07:36:28.599Z,93.10
2023-02-11T07:38:55.650Z,93.32
2023-02-11T07:41:25.169Z,93.86
2023-02-11T07:43:54.057Z,94.21
2023-02-11T07:46:25.553Z,94.11
2023-02-11T07:48:53.383Z,94.56
2023-02-11T07:51:23.583Z,93.40
2023-02-11T07:53:50.861Z,92.64
2023-02-11T07:56:19.917Z,94.04
2023-02-11T07:58:47.157Z,93.45
2023-02-11T08:01:18.669Z,94.55
2023-02-11T08:03:45.777Z,93.54
2023-02-11T08:06:16.483Z,93.15
2023-02-11T08:08:44.490Z,92.66
2023-02-11T08:11:21.826Z,91.48
2023-02-11T08:13:49.360Z,91.86
2023-02-11T08:16:22.549Z,90.67
2023-02-11T08:18:51.054Z,90.16
2023-02-11T08:21:18.900Z,89.77
2023-02-11T08:23:46.916Z,89.40
2023-02-11T08:26:23.794Z,89.43
2023-02-11T08:28:54.259Z,89.02
2023-02-11T08:31:25.234Z,88.81
2023-02-11T08:33:54.619Z,88.91
2023-02-11T08:36:25.151Z,88.29
2023-02-11T08:38:57.159Z,87.14
2023-02-11T08:41:32.644Z,88.33
2023-02-11T08:43:59.784Z,87.89
2023-02-11T08:46:27.988Z,87.32
2023-02-11T08:48:55.852Z,87.69
2023-02-11T08:51:27.557Z,88.90
2023-02-11T08:53:56.282Z,87.70
2023-02-11T08:56:23.820Z,87.71
2023-02-11T08:58:51.904Z,87.16
2023-02-11T09:01:24.274Z,86.43
2023-02-11T09:03:51.950Z,86.23
2023-02-11T09:06:19.890Z,86.09
2023-02-11T09:08:49.906Z,86.49
2023-02-11T09:11:22.577Z,85.75
2023-02-11T09:13:50.972Z,85.01
2023-02-11T09:16:28.032Z,85.88
2023-02-11T09:18:58.264Z,84.27
2023-02-11T09:21:25.736Z,84.11
2023-02-11T09:23:53.384Z,84.07
2023-02-11T09:26:27.383Z,82.87
2023-02-11T09:28:54.679Z,83.32
2023-02-11T09:31:24.975Z,82.31
2023-02-11T09:33:56.912Z,81.07
2023-02-11T09:36:33.713Z,81.09
2023-02-11T09:39:02.296Z,80.66
2023-02-11T09:41:39.719Z,78.90
2023-02-11T09:44:18.521Z,78.87
2023-02-11T09:47:01.024Z,79.76
2023-02-11T09:49:51.914Z,79.30
2023-02-11T09:52:24.635Z,78.48
2023-02-11T09:55:01.254Z,78.20
2023-02-11T09:57:36.569Z,77.53
2023-02-11T10:00:24.304Z,79.32
2023-02-11T10:03:42.593Z,78.42
2023-02-11T10:06:37.002Z,76.02
2023-02-11T10:09:33.051Z,76.12
2023-02-11T10:12:15.042Z,76.69
2023-02-11T10:14:50.620Z,76.23
2023-02-11T10:17:20.241Z,76.56
2023-02-11T10:19:59.098Z,75.63
2023-02-11T10:22:36.871Z,75.32
2023-02-11T10:25:40.382Z,74.98
2023-02-11T10:28:24.653Z,76.59
2023-02-11T10:31:03.986Z,76.86
2023-02-11T10:34:05.721Z,76.05
2023-02-11T10:36:40.212Z,76.37
2023-02-11T10:39:14.209Z,75.09
2023-02-11T10:41:56.677Z,75.33
2023-02-11T10:44:44.072Z,74.16
2023-02-11T10:47:22.914Z,75.11
2023-02-11T10:49:50.094Z,75.21
2023-02-11T10:52:20.168Z,74.80
2023-02-11T10:55:05.090Z,75.32
2023-02-11T10:57:59.533Z,74.33
2023-02-11T11:00:41.522Z,75.01
2023-02-11T11:03:46.950Z,75.63
2023-02-11T11:06:14.014Z,75.98
2023-02-11T11:08:49.420Z,74.49
2023-02-11T11:11:22.986Z,74.33
2023-02-11T11:13:53.164Z,74.62
2023-02-11T11:16:27.300Z,74.84
2023-02-11T11:19:23.542Z,74.36
2023-02-11T11:21:56.064Z,74.30
2023-02-11T11:24:40.612Z,75.23
2023-02-11T11:27:21.846Z,74.70
2023-02-11T11:29:55.139Z,75.13
2023-02-11T11:32:32.492Z,74.90
2023-02-11T11:35:05.989Z,75.16
2023-02-11T11:37:39.025Z,74.44
2023-02-11T11:40:08.993Z,75.03
2023-02-11T11:42:39.189Z,74.96
2023-02-11T11:45:25.791Z,73.07
2023-02-11T11:48:46.892Z,73.40
2023-02-11T11:51:14.051Z,72.83
2023-02-11T11:54:12.681Z,73.15
2023-02-11T11:56:54.358Z,73.94
2023-02-11T11:59:22.566Z,73.68
2023-02-11T12:02:06.862Z,73.16
2023-02-11T12:05:10.584Z,72.96
2023-02-11T12:08:20.653Z,73.62
2023-02-11T12:11:05.806Z,74.09
2023-02-11T12:14:06.493Z,73.05
2023-02-11T12:17:03.573Z,74.10
2023-02-11T12:19:48.729Z,73.07
2023-02-11T12:22:44.392Z,73.08
2023-02-11T12:25:54.280Z,73.81
2023-02-11T12:28:53.897Z,72.73
2023-02-11T12:31:53.876Z,72.50
2023-02-11T12:34:58.378Z,72.80
2023-02-11T12:37:41.328Z,72.91
2023-02-11T12:40:21.854Z,72.74
2023-02-11T12:43:16.528Z,72.59
2023-02-11T12:46:24.329Z,71.66
2023-02-11T12:49:24.562Z,71.16
2023-02-11T12:52:22.695Z,72.38
2023-02-11T12:55:02.711Z,71.44
2023-02-11T12:57:33.558Z,72.14
2023-02-11T13:00:00.381Z,71.59
2023-02-11T13:02:34.298Z,71.90
2023-02-11T13:05:29.743Z,71.42
2023-02-11T13:08:42.941Z,71.08
2023-02-11T13:11:41.124Z,70.75
2023-02-11T13:14:32.703Z,70.29
2023-02-11T13:17:00.396Z,69.59
2023-02-11T13:19:52.938Z,69.03
2023-02-11T13:22:28.539Z,70.17
2023-02-11T13:25:31.356Z,71.24
2023-02-11T13:28:28.549Z,70.81
2023-02-11T13:31:03.459Z,70.44
2023-02-11T13:33:35.521Z,70.48
2023-02-11T13:36:04.613Z,70.04
2023-02-11T13:38:33.176Z,70.19
2023-02-11T13:41:26.470Z,69.50
2023-02-11T13:44:22.680Z,69.32
2023-02-11T13:47:02.192Z,69.54
2023-02-11T13:49:33.721Z,69.75
2023-02-11T13:52:02.691Z,70.74
2023-02-11T13:54:39.162Z,70.65
2023-02-11T13:57:26.341Z,70.81
2023-02-11T14:00:10.273Z,71.38
2023-02-11T14:02:56.643Z,70.08
2023-02-11T14:05:50.951Z,70.77
2023-02-11T14:08:44.494Z,70.93
2023-02-11T14:11:43.593Z,70.26
2023-02-11T14:14:27.255Z,70.87
2023-02-11T14:17:00.787Z,71.54
2023-02-11T14:19:45.904Z,72.97
2023-02-11T14:22:31.807Z,71.96
2023-02-11T14:25:05.288Z,71.16
2023-02-11T14:27:52.221Z,73.53
2023-02-11T14:30:44.323Z,72.56
2023-02-11T14:33:32.642Z,72.96
2023-02-11T14:36:28.385Z,73.68
2023-02-11T14:39:32.699Z,73.90
2023-02-11T14:42:02.864Z,74.33
2023-02-11T14:44:33.205Z,74.37
2023-02-11T14:47:00.584Z,75.45
2023-02-11T14:49:30.565Z,75.84
2023-02-11T14:52:25.922Z,76.77
2023-02-11T14:55:17.893Z,82.43
2023-02-11T14:57:45.746Z,79.49
2023-02-11T15:00:20.878Z,80.32
2023-02-11T15:02:48.791Z,82.21
2023-02-11T15:05:29.030Z,83.35
2023-02-11T15:08:02.922Z,81.65
2023-02-11T15:10:43.469Z,81.31
2023-02-11T15:13:20.182Z,84.12
2023-02-11T15:15:55.229Z,84.35
2023-02-11T15:18:33.591Z,84.35
2023-02-11T15:21:01.009Z,85.00
2023-02-11T15:23:30.044Z,87.77
2023-02-11T15:25:57.107Z,89.96
2023-02-11T15:28:34.260Z,91.09
2023-02-11T15:31:14.656Z,88.42
2023-02-11T15:33:41.819Z,86.70
2023-02-11T15:36:13.768Z,87.19
2023-02-11T15:38:41.039Z,88.12
2023-02-11T15:41:35.993Z,89.01
2023-02-11T15:44:02.888Z,89.40
2023-02-11T15:46:39.522Z,88.14
2023-02-11T15:49:08.513Z,87.59
2023-02-11T15:51:37.451Z,88.90
2023-02-11T15:54:16.738Z,89.39
2023-02-11T15:56:47.519Z,89.59
2023-02-11T15:59:23.876Z,90.24
2023-02-11T16:01:50.886Z,88.68
2023-02-11T16:04:21.990Z,89.06
2023-02-11T16:06:51.072Z,88.92
2023-02-11T16:09:30.558Z,89.27
2023-02-11T16:12:04.817Z,89.62
2023-02-11T16:14:42.218Z,89.60
2023-02-11T16:17:22.337Z,91.30
2023-02-11T16:19:51.946Z,90.69
2023-02-11T16:22:30.101Z,91.21
2023-02-11T16:25:00.576Z,90.97
2023-02-11T16:27:38.181Z,91.67
2023-02-11T16:30:07.192Z,91.70
2023-02-11T16:32:35.032Z,90.96
2023-02-11T16:35:02.143Z,91.02
2023-02-11T16:37:29.061Z,91.69
2023-02-11T16:39:58.030Z,91.83
2023-02-11T16:42:25.249Z,91.69
2023-02-11T16:44:52.322Z,91.64
2023-02-11T16:47:27.900Z,91.50
2023-02-11T16:49:56.727Z,90.92
2023-02-11T16:52:24.459Z,90.40
2023-02-11T16:54:52.085Z,90.53
2023-02-11T16:57:26.933Z,90.40
2023-02-11T16:59:55.094Z,90.81
2023-02-11T17:02:36.289Z,90.55
2023-02-11T17:05:11.971Z,90.08
2023-02-11T17:07:39.109Z,89.66
2023-02-11T17:10:15.121Z,89.12
2023-02-11T17:12:42.026Z,89.27
2023-02-11T17:15:09.754Z,89.01
2023-02-11T17:17:36.782Z,88.74
2023-02-11T17:20:04.120Z,86.95
2023-02-11T17:22:31.028Z,87.19
2023-02-11T17:24:58.765Z,88.18
2023-02-11T17:27:25.789Z,88.47
2023-02-11T17:29:52.843Z,88.97
2023-02-11T17:32:19.884Z,88.78
2023-02-11T17:34:46.958Z,89.62
2023-02-11T17:37:13.956Z,90.36
2023-02-11T17:39:41.122Z,90.01
2023-02-11T17:42:08.692Z,92.34
2023-02-11T17:44:35.728Z,94.31
2023-02-11T17:47:02.764Z,94.67
2023-02-11T17:49:30.213Z,94.88
2023-02-11T17:51:57.162Z,95.30
2023-02-11T17:54:25.004Z,95.94
2023-02-11T17:56:55.169Z,95.41
2023-02-11T17:59:25.207Z,94.54
2023-02-11T18:01:52.154Z,93.44
2023-02-11T18:04:20.305Z,92.37
2023-02-11T18:06:47.642Z,91.75
2023-02-11T18:09:14.756Z,92.11
2023-02-11T18:11:42.101Z,92.42
2023-02-11T18:14:10.775Z,93.55
2023-02-11T18:16:39.793Z,94.71
2023-02-11T18:19:07.672Z,93.44
2023-02-11T18:21:35.315Z,93.63
2023-02-11T18:24:06.396Z,93.61
2023-02-11T18:26:34.465Z,94.60
2023-02-11T18:29:02.006Z,96.13
2023-02-11T18:31:29.567Z,96.57
2023-02-11T18:33:56.482Z,96.10
2023-02-11T18:36:23.802Z,95.46
2023-02-11T18:38:52.641Z,94.95
2023-02-11T18:41:20.531Z,93.82
2023-02-11T18:43:47.467Z,91.80
2023-02-11T18:46:16.052Z,91.56
2023-02-11T18:48:44.817Z,91.24
2023-02-11T18:51:15.836Z,91.74
2023-02-11T18:53:43.348Z,91.77
2023-02-11T18:56:15.252Z,92.38
2023-02-11T18:58:42.412Z,93.49
2023-02-11T19:01:25.945Z,94.69
2023-02-11T19:03:54.832Z,95.92
2023-02-11T19:06:28.595Z,96.04
2023-02-11T19:08:59.957Z,96.73
2023-02-11T19:11:47.226Z,97.16
2023-02-11T19:14:25.718Z,97.33
2023-02-11T19:16:56.755Z,95.53
2023-02-11T19:19:25.739Z,95.80
2023-02-11T19:21:52.835Z,95.24
2023-02-11T19:24:20.288Z,94.75
2023-02-11T19:26:49.569Z,94.30
2023-02-11T19:29:17.281Z,94.08
2023-02-11T19:31:44.988Z,94.36
2023-02-11T19:34:14.163Z,95.44
2023-02-11T19:36:41.564Z,95.51
2023-02-11T19:39:09.246Z,95.31
2023-02-11T19:41:37.033Z,95.20
2023-02-11T19:44:05.990Z,95.69
2023-02-11T19:46:36.963Z,95.09
2023-02-11T19:49:05.367Z,95.09
2023-02-11T19:51:33.905Z,95.91
2023-02-11T19:54:02.328Z,97.42
2023-02-11T19:56:29.342Z,98.16
2023-02-11T19:58:56.779Z,100.00
2023-02-11T20:01:26.121Z,100.00
2023-02-11T20:03:57.038Z,100.00
2023-02-11T20:06:30.538Z,100.00
2023-02-11T20:09:04.227Z,100.00
2023-02-11T20:11:31.902Z,100.00
2023-02-11T20:14:00.192Z,100.00
2023-02-11T20:16:45.076Z,100.00
2023-02-11T20:19:21.447Z,100.00
2023-02-11T20:21:52.468Z,100.00
2023-02-11T20:24:20.535Z,100.00
2023-02-11T20:26:48.781Z,100.00
2023-02-11T20:29:18.990Z,100.00
2023-02-11T20:31:46.368Z,100.00
2023-02-11T20:34:13.542Z,100.00
2023-02-11T20:36:40.751Z,100.00
2023-02-11T20:39:08.356Z,100.00
2023-02-11T20:41:39.909Z,100.00
2023-02-11T20:44:09.925Z,100.00
2023-02-11T20:46:40.315Z,100.00
2023-02-11T20:49:10.322Z,100.00
2023-02-11T20:51:37.576Z,100.00
2023-02-11T20:54:06.227Z,100.00
2023-02-11T20:56:36.677Z,100.00
2023-02-11T20:59:05.769Z,100.00
2023-02-11T21:01:43.208Z,100.00
2023-02-11T21:04:20.279Z,100.00
2023-02-11T21:06:55.313Z,100.00
2023-02-11T21:09:26.441Z,100.00
2023-02-11T21:11:54.785Z,100.00
2023-02-11T21:14:24.814Z,100.00
2023-02-11T21:16:52.637Z,100.00
2023-02-11T21:19:20.316Z,100.00
2023-02-11T21:21:47.768Z,100.00
2023-02-11T21:24:17.300Z,100.00
2023-02-11T21:26:44.254Z,100.00
2023-02-11T21:29:11.891Z,100.00
2023-02-11T21:31:39.609Z,100.00
2023-02-11T21:34:07.234Z,100.00
2023-02-11T21:36:34.260Z,100.00
2023-02-11T21:39:01.926Z,100.00
2023-02-11T21:41:29.119Z,100.00
2023-02-11T21:43:56.477Z,100.00
2023-02-11T21:46:23.749Z,100.00
2023-02-11T21:48:50.981Z,100.00
2023-02-11T21:51:23.743Z,100.00
2023-02-11T21:54:02.291Z,100.00
2023-02-11T21:56:31.368Z,100.00
2023-02-11T21:59:00.019Z,100.00
2023-02-11T22:01:33.351Z,100.00
2023-02-11T22:04:00.562Z,100.00
2023-02-11T22:06:31.093Z,100.00
2023-02-11T22:09:01.816Z,100.00
2023-02-11T22:11:28.781Z,100.00
2023-02-11T22:13:57.755Z,100.00
2023-02-11T22:16:29.812Z,100.00
2023-02-11T22:18:58.922Z,100.00
2023-02-11T22:21:27.700Z,100.00
2023-02-11T22:23:55.957Z,100.00
2023-02-11T22:26:26.326Z,100.00
2023-02-11T22:28:54.863Z,100.00
2023-02-11T22:31:29.048Z,100.00
2023-02-11T22:33:57.297Z,100.00
2023-02-11T22:36:30.766Z,100.00
2023-02-11T22:39:02.097Z,100.00
2023-02-11T22:41:29.598Z,100.00
2023-02-11T22:43:56.706Z,100.00
2023-02-11T22:46:23.702Z,100.00
2023-02-11T22:48:51.264Z,100.00
2023-02-11T22:51:25.547Z,100.00
2023-02-11T22:53:56.612Z,100.00
2023-02-11T22:56:24.625Z,100.00
2023-02-11T22:58:53.194Z,100.00
2023-02-11T23:01:20.768Z,100.00
2023-02-11T23:03:47.715Z,100.00
2023-02-11T23:06:14.827Z,100.00
2023-02-11T23:08:45.398Z,100.00
2023-02-11T23:11:17.118Z,100.00
2023-02-11T23:13:45.534Z,100.00
2023-02-11T23:16:17.371Z,100.00
2023-02-11T23:18:46.163Z,100.00
2023-02-11T23:21:24.215Z,100.00
2023-02-11T23:24:13.234Z,100.00
2023-02-11T23:26:42.206Z,100.00
2023-02-11T23:29:10.789Z,100.00
2023-02-11T23:31:40.729Z,100.00
2023-02-11T23:34:08.278Z,100.00
2023-02-11T23:36:35.877Z,100.00
2023-02-11T23:39:03.430Z,100.00
2023-02-11T23:41:30.399Z,100.00
2023-02-11T23:43:58.097Z,100.00
2023-02-11T23:46:27.127Z,100.00
2023-02-11T23:48:54.346Z,100.00
2023-02-11T23:51:21.704Z,100.00
2023-02-11T23:53:49.654Z,100.00
2023-02-11T23:56:20.974Z,100.00
2023-02-11T23:58:50.156Z,100.00
